Time;durP1;ratioP1;P1;durP2;ratioP2;P2;SDS_P1;SDS_P2;PMS_P1;PMS_P2;Temp;Humidity;BMP_temperature;BMP_pressure;BME280_temperature;BME280_humidity;BME280_pressure;Samples;Min_cycle;Max_cycle;Signal;HPM_P1;HPM_P2
2023/01/08 00:01:26;;;;;;;1999.90;999.90;;;;;;;1.81;100.00;94364.59;5074922;28;20216;-64
2023/01/08 00:03:52;;;;;;;1999.90;999.90;;;;;;;1.82;100.00;94360.00;5074853;28;20223;-62
2023/01/08 00:06:20;;;;;;;1999.90;999.90;;;;;;;1.74;100.00;94369.94;5074983;28;20170;-62
2023/01/08 00:08:45;;;;;;;1999.90;999.90;;;;;;;1.71;100.00;94361.84;5074969;28;20185;-62
2023/01/08 00:11:12;;;;;;;1999.90;999.90;;;;;;;1.77;100.00;94353.06;5075073;28;20181;-63
2023/01/08 00:13:37;;;;;;;1999.90;999.90;;;;;;;1.76;100.00;94346.13;5074959;28;20184;-60
2023/01/08 00:16:08;;;;;;;1999.90;999.90;;;;;;;1.78;100.00;94335.75;5074680;28;20209;-61
2023/01/08 00:18:33;;;;;;;1999.90;999.90;;;;;;;1.78;100.00;94327.69;5075296;28;20184;-62
2023/01/08 00:20:59;;;;;;;1999.90;999.90;;;;;;;1.79;100.00;94326.53;5074747;28;20177;-60
2023/01/08 00:23:25;;;;;;;1999.90;999.90;;;;;;;1.72;100.00;94318.44;5074948;28;20186;-76
2023/01/08 00:25:50;;;;;;;1999.90;999.90;;;;;;;1.68;100.00;94311.47;5074840;28;20251;-75
2023/01/08 00:28:16;;;;;;;1999.90;999.90;;;;;;;1.66;100.00;94303.78;5074705;28;20578;-74
2023/01/08 00:30:41;;;;;;;1999.90;999.90;;;;;;;1.67;100.00;94299.94;5074624;28;20184;-74
2023/01/08 00:33:07;;;;;;;1999.90;999.90;;;;;;;1.67;100.00;94297.25;5074392;28;20269;-72
2023/01/08 00:35:32;;;;;;;1999.90;999.90;;;;;;;1.64;100.00;94294.53;5074442;28;20286;-72
2023/01/08 00:37:58;;;;;;;1999.90;999.90;;;;;;;1.62;100.00;94270.69;5074496;28;20183;-62
2023/01/08 00:40:23;;;;;;;1999.90;999.90;;;;;;;1.61;100.00;94263.78;5074882;28;20177;-62
2023/01/08 00:42:48;;;;;;;1999.90;999.90;;;;;;;1.67;100.00;94266.88;5074158;28;20170;-67
2023/01/08 00:45:14;;;;;;;1999.90;999.90;;;;;;;1.65;100.00;94261.88;5074428;28;20183;-67
2023/01/08 00:47:39;;;;;;;1999.90;999.90;;;;;;;1.70;100.00;94258.06;5073988;28;20269;-66
2023/01/08 00:50:05;;;;;;;1999.90;999.90;;;;;;;1.71;100.00;94257.69;5075344;28;20183;-66
2023/01/08 00:52:30;;;;;;;1999.90;999.90;;;;;;;1.70;100.00;94255.34;5073936;28;20181;-66
2023/01/08 00:54:55;;;;;;;1999.90;999.90;;;;;;;1.71;100.00;94251.53;5073832;28;20193;-65
2023/01/08 00:57:21;;;;;;;1999.90;999.90;;;;;;;1.68;100.00;94253.03;5073525;28;20173;-65
2023/01/08 00:59:46;;;;;;;1999.90;999.90;;;;;;;1.73;100.00;94254.63;5073850;28;20219;-78
2023/01/08 01:02:11;;;;;;;1999.90;999.90;;;;;;;1.73;100.00;94262.69;5074336;28;20175;-79
2023/01/08 01:04:37;;;;;;;1999.90;999.90;;;;;;;1.72;100.00;94261.94;5073698;28;20197;-79
2023/01/08 01:07:03;;;;;;;1999.90;999.90;;;;;;;1.67;100.00;94269.59;5073668;28;20176;-80
2023/01/08 01:09:29;;;;;;;1999.90;999.90;;;;;;;1.72;100.00;94274.59;5074887;28;20179;-78
2023/01/08 01:11:54;;;;;;;1999.90;999.90;;;;;;;1.63;100.00;94288.38;5073686;28;20230;-79
2023/01/08 01:14:19;;;;;;;1999.90;999.90;;;;;;;1.63;100.00;94299.13;5073543;28;20175;-66
2023/01/08 01:16:47;;;;;;;1999.90;999.90;;;;;;;1.62;100.00;94321.81;5074219;28;20300;-66
2023/01/08 01:19:14;;;;;;;1999.90;999.90;;;;;;;1.65;100.00;94331.81;5073280;28;20267;-62
2023/01/08 01:21:39;;;;;;;1999.90;999.90;;;;;;;1.63;100.00;94342.16;5073661;28;20173;-62
2023/01/08 01:24:05;;;;;;;1999.90;999.90;;;;;;;1.54;100.00;94355.19;5073463;28;20283;-62
2023/01/08 01:26:31;;;;;;;1999.90;999.90;;;;;;;1.45;100.00;94368.13;5073690;28;20173;-61
2023/01/08 01:28:57;;;;;;;1999.90;999.90;;;;;;;1.41;100.00;94367.34;5073178;28;20225;-61
2023/01/08 01:31:24;;;;;;;1999.90;999.90;;;;;;;1.36;100.00;94359.63;5073600;28;20212;-62
2023/01/08 01:33:50;;;;;;;1999.90;999.90;;;;;;;1.45;100.00;94360.06;5073663;28;20511;-59
2023/01/08 01:36:18;;;;;;;1999.90;999.90;;;;;;;1.55;100.00;94356.72;5073382;28;20266;-58
2023/01/08 01:38:48;;;;;;;1999.90;999.90;;;;;;;1.58;100.00;94372.13;5074509;28;20173;-57
2023/01/08 01:41:25;;;;;;;1999.90;999.90;;;;;;;1.43;100.00;94367.75;5073397;28;20196;-59
2023/01/08 01:43:52;;;;;;;1999.90;999.90;;;;;;;1.44;100.00;94366.59;5073273;28;20682;-58
2023/01/08 01:46:39;;;;;;;1999.90;999.90;;;;;;;1.49;100.00;94363.56;5073064;28;20166;-58
2023/01/08 01:49:10;;;;;;;1999.90;999.90;;;;;;;1.42;100.00;94368.88;5073504;28;20214;-59
2023/01/08 01:51:40;;;;;;;1999.90;999.90;;;;;;;1.33;100.00;94371.09;5073123;28;20173;-66
2023/01/08 01:54:09;;;;;;;1999.90;999.90;;;;;;;1.32;100.00;94368.78;5073841;28;20181;-63
2023/01/08 01:56:34;;;;;;;1999.90;999.90;;;;;;;1.32;100.00;94374.16;5073462;28;20236;-58
2023/01/08 01:59:00;;;;;;;1999.90;999.90;;;;;;;1.14;100.00;94368.63;5073081;28;20211;-58
2023/01/08 02:01:28;;;;;;;1999.90;999.90;;;;;;;1.13;100.00;94361.66;5073309;28;20249;-59
2023/01/08 02:03:54;;;;;;;1999.90;999.90;;;;;;;1.02;100.00;94350.03;5073449;28;20285;-58
2023/01/08 02:06:37;;;;;;;1999.90;999.90;;;;;;;0.98;100.00;94330.41;5073162;28;20201;-57
2023/01/08 02:09:24;;;;;;;1999.90;999.90;;;;;;;1.00;100.00;94314.72;5073100;28;20219;-59
2023/01/08 02:12:18;;;;;;;1999.90;999.90;;;;;;;0.96;100.00;94316.59;5073226;28;20315;-67
2023/01/08 02:15:02;;;;;;;1999.90;999.90;;;;;;;0.95;100.00;94306.22;5072953;28;20190;-69
2023/01/08 02:17:43;;;;;;;1999.90;999.90;;;;;;;0.93;100.00;94306.59;5074855;28;20171;-67
2023/01/08 02:20:17;;;;;;;1999.90;999.90;;;;;;;0.92;100.00;94302.34;5076507;28;20176;-66
2023/01/08 02:23:14;;;;;;;1999.90;999.90;;;;;;;0.95;100.00;94293.53;5077564;28;20187;-66
2023/01/08 02:26:07;;;;;;;1999.90;999.90;;;;;;;0.90;100.00;94288.50;5076795;28;20179;-66
2023/01/08 02:28:38;;;;;;;1999.90;999.90;;;;;;;0.86;100.00;94271.59;5077461;28;20178;-61
2023/01/08 02:31:04;;;;;;;1999.90;999.90;;;;;;;0.83;100.00;94268.88;5077384;28;20554;-66
2023/01/08 02:33:31;;;;;;;1999.90;999.90;;;;;;;0.82;100.00;94259.25;5076819;28;20337;-63
2023/01/08 02:36:24;;;;;;;1999.90;999.90;;;;;;;0.86;100.00;94257.38;5076518;28;20234;-63
2023/01/08 02:39:17;;;;;;;1999.90;999.90;;;;;;;0.84;100.00;94252.38;5077028;28;20273;-63
2023/01/08 02:42:01;;;;;;;1999.90;999.90;;;;;;;0.82;100.00;94254.66;5077146;28;20175;-63
2023/01/08 02:44:34;;;;;;;1999.90;999.90;;;;;;;0.83;100.00;94266.94;5076308;28;20179;-63
2023/01/08 02:47:00;;;;;;;1999.90;999.90;;;;;;;0.80;100.00;94262.31;5077415;28;20175;-62
2023/01/08 02:49:31;;;;;;;1999.90;999.90;;;;;;;0.81;100.00;94266.56;5076517;28;20173;-62
2023/01/08 02:51:59;;;;;;;1999.90;999.90;;;;;;;0.77;100.00;94260.38;5076580;28;20171;-55
2023/01/08 02:54:28;;;;;;;1999.90;999.90;;;;;;;0.81;100.00;94263.88;5077088;28;20182;-57
2023/01/08 02:57:09;;;;;;;1999.90;999.90;;;;;;;0.82;100.00;94265.41;5076634;28;20216;-55
2023/01/08 02:59:37;;;;;;;1999.90;999.90;;;;;;;0.76;100.00;94261.50;5075948;28;20184;-55
2023/01/08 03:02:03;;;;;;;1999.90;999.90;;;;;;;0.75;100.00;94265.34;5076784;28;20180;-56
2023/01/08 03:04:35;;;;;;;1999.90;999.90;;;;;;;0.71;100.00;94269.91;5075873;28;20193;-57
2023/01/08 03:07:01;;;;;;;1999.90;999.90;;;;;;;0.70;100.00;94265.69;5076946;28;20258;-65
2023/01/08 03:09:27;;;;;;;1999.90;999.90;;;;;;;0.72;100.00;94257.25;5076489;28;20184;-56
2023/01/08 03:11:58;;;;;;;1999.90;999.90;;;;;;;0.71;100.00;94253.78;5076060;28;20187;-56
2023/01/08 03:14:29;;;;;;;1999.90;999.90;;;;;;;0.71;100.00;94247.63;5076876;28;20179;-55
2023/01/08 03:17:00;;;;;;;1999.90;999.90;;;;;;;0.80;100.00;94240.81;5075969;28;20221;-54
2023/01/08 03:19:47;;;;;;;1999.90;999.90;;;;;;;0.84;100.00;94241.63;5076198;28;20727;-55
2023/01/08 03:22:15;;;;;;;1999.90;999.90;;;;;;;0.87;100.00;94246.25;5076132;28;20173;-55
2023/01/08 03:24:42;;;;;;;1999.90;999.90;;;;;;;0.83;100.00;94240.09;5075784;28;20180;-58
2023/01/08 03:27:13;;;;;;;1999.90;999.90;;;;;;;0.82;100.00;94243.91;5075817;28;20207;-55
2023/01/08 03:29:39;;;;;;;1999.90;999.90;;;;;;;0.84;100.00;94247.00;5075726;28;20177;-54
2023/01/08 03:32:13;;;;;;;1999.90;999.90;;;;;;;0.84;100.00;94260.41;5075515;28;20172;-58
2023/01/08 03:34:42;;;;;;;1999.90;999.90;;;;;;;0.83;100.00;94253.50;5075774;28;20269;-55
2023/01/08 03:37:09;;;;;;;1999.90;999.90;;;;;;;0.82;100.00;94260.03;5076167;28;20176;-55
2023/01/08 03:39:46;;;;;;;1999.90;999.90;;;;;;;0.86;100.00;94270.81;5075630;28;20179;-56
2023/01/08 03:42:15;;;;;;;1999.90;999.90;;;;;;;0.84;100.00;94278.47;5076082;28;20190;-59
2023/01/08 03:44:41;;;;;;;1999.90;999.90;;;;;;;0.84;100.00;94289.97;5075263;28;20177;-56
2023/01/08 03:47:09;;;;;;;1999.90;999.90;;;;;;;0.93;100.00;94306.59;5074889;28;20177;-62
2023/01/08 03:49:36;;;;;;;1999.90;999.90;;;;;;;1.01;100.00;94316.25;5074964;28;20179;-62
2023/01/08 03:52:02;;;;;;;1999.90;999.90;;;;;;;1.02;100.00;94327.78;5075239;28;20174;-61
2023/01/08 03:54:33;;;;;;;1999.90;999.90;;;;;;;1.04;100.00;94331.66;5075635;28;20194;-61
2023/01/08 03:56:58;;;;;;;1999.90;999.90;;;;;;;0.98;100.00;94335.78;5075422;28;20207;-62
2023/01/08 03:59:24;;;;;;;1999.90;999.90;;;;;;;0.93;100.00;94346.88;5075490;28;20237;-62
2023/01/08 04:01:49;;;;;;;1999.90;999.90;;;;;;;0.85;100.00;94360.59;5074981;28;20208;-60
2023/01/08 04:04:16;;;;;;;1999.90;999.90;;;;;;;0.87;100.00;94353.72;5074976;28;20204;-63
2023/01/08 04:06:41;;;;;;;1999.90;999.90;;;;;;;0.84;100.00;94354.44;5075345;28;20179;-62
2023/01/08 04:09:07;;;;;;;1999.90;999.90;;;;;;;0.82;100.00;94354.06;5074865;28;20219;-63
2023/01/08 04:11:35;;;;;;;1999.90;999.90;;;;;;;0.78;100.00;94364.00;5074990;28;20214;-63
2023/01/08 04:14:01;;;;;;;1999.90;999.90;;;;;;;0.80;100.00;94356.31;5074785;28;20172;-63
2023/01/08 04:16:27;;;;;;;1999.90;999.90;;;;;;;0.77;100.00;94354.41;5075138;28;20199;-64
2023/01/08 04:18:52;;;;;;;1999.90;999.90;;;;;;;0.77;100.00;94354.41;5074727;28;20187;-69
2023/01/08 04:21:17;;;;;;;1999.90;999.90;;;;;;;0.77;100.00;94351.72;5074322;28;20178;-62
2023/01/08 04:23:43;;;;;;;1999.90;999.90;;;;;;;0.78;100.00;94355.94;5075383;28;20214;-63
2023/01/08 04:26:09;;;;;;;1999.90;999.90;;;;;;;0.79;100.00;94354.78;5075406;28;20194;-63
2023/01/08 04:28:35;;;;;;;1999.90;999.90;;;;;;;0.79;100.00;94352.09;5075077;28;20176;-63
2023/01/08 04:31:08;;;;;;;1999.90;999.90;;;;;;;0.78;100.00;94350.56;5074592;28;20265;-63
2023/01/08 04:33:33;;;;;;;1999.90;999.90;;;;;;;0.76;100.00;94355.50;5074479;28;20258;-62
2023/01/08 04:36:04;;;;;;;1999.90;999.90;;;;;;;0.67;100.00;94362.31;5074084;28;20372;-62
2023/01/08 04:38:29;;;;;;;1999.90;999.90;;;;;;;0.66;100.00;94361.56;5075528;28;20186;-62
2023/01/08 04:40:57;;;;;;;1999.90;999.90;;;;;;;0.65;100.00;94357.31;5073554;28;20262;-61
2023/01/08 04:43:22;;;;;;;1999.90;999.90;;;;;;;0.65;100.00;94351.19;5074034;28;20253;-61
2023/01/08 04:45:48;;;;;;;1999.90;999.90;;;;;;;0.63;100.00;94338.09;5074221;28;20580;-61
2023/01/08 04:48:13;;;;;;;1999.90;999.90;;;;;;;0.63;100.00;94332.75;5074650;28;20180;-61
2023/01/08 04:50:39;;;;;;;1999.90;999.90;;;;;;;0.64;100.00;94323.53;5074811;28;20270;-62
2023/01/08 04:53:05;;;;;;;1999.90;999.90;;;;;;;0.75;100.00;94313.69;5073912;28;20179;-63
2023/01/08 04:55:30;;;;;;;1999.90;999.90;;;;;;;0.77;100.00;94321.38;5073955;28;20208;-61
2023/01/08 04:57:55;;;;;;;1999.90;999.90;;;;;;;0.75;100.00;94315.59;5074341;28;20233;-69
2023/01/08 05:00:21;;;;;;;1999.90;999.90;;;;;;;0.72;100.00;94314.41;5074203;28;20536;-80
2023/01/08 05:02:46;;;;;;;1999.90;999.90;;;;;;;0.55;100.00;94308.84;5073842;28;20180;-78
2023/01/08 05:05:12;;;;;;;1999.90;999.90;;;;;;;0.51;100.00;94313.41;5073754;28;20203;-78
2023/01/08 05:07:37;;;;;;;1999.90;999.90;;;;;;;0.52;100.00;94315.72;5074206;28;20177;-78
2023/01/08 05:10:03;;;;;;;1999.90;999.90;;;;;;;0.56;100.00;94305.81;5074223;28;20313;-75
2023/01/08 05:12:28;;;;;;;1999.90;999.90;;;;;;;0.55;100.00;94306.94;5073891;28;20172;-77
2023/01/08 05:14:53;;;;;;;1999.90;999.90;;;;;;;0.55;100.00;94309.63;5073274;28;20168;-58
2023/01/08 05:17:19;;;;;;;1999.90;999.90;;;;;;;0.54;100.00;94302.69;5074425;28;20172;-62
2023/01/08 05:19:44;;;;;;;1999.90;999.90;;;;;;;0.53;100.00;94300.38;5074060;28;20187;-62
2023/01/08 05:22:09;;;;;;;1999.90;999.90;;;;;;;0.53;100.00;94293.09;5074027;28;20171;-62
2023/01/08 05:24:35;;;;;;;1999.90;999.90;;;;;;;0.55;100.00;94296.22;5073482;28;20178;-62
2023/01/08 05:27:00;;;;;;;1999.90;999.90;;;;;;;0.55;100.00;94298.88;5073621;28;20284;-62
2023/01/08 05:29:25;;;;;;;1999.90;999.90;;;;;;;0.55;100.00;94293.53;5073909;28;20182;-63
2023/01/08 05:31:51;;;;;;;1999.90;999.90;;;;;;;0.59;100.00;94293.56;5073741;28;20270;-63
2023/01/08 05:34:16;;;;;;;1999.90;999.90;;;;;;;0.58;100.00;94292.75;5073400;28;20234;-64
2023/01/08 05:36:42;;;;;;;1999.90;999.90;;;;;;;0.60;100.00;94289.72;5074238;28;20206;-56
2023/01/08 05:39:07;;;;;;;1999.90;999.90;;;;;;;0.60;100.00;94295.88;5073929;28;20193;-56
2023/01/08 05:41:32;;;;;;;1999.90;999.90;;;;;;;0.56;100.00;94308.50;5073617;28;20176;-56
2023/01/08 05:43:59;;;;;;;1999.90;999.90;;;;;;;0.56;100.00;94313.84;5073420;28;20179;-55
2023/01/08 05:46:24;;;;;;;1999.90;999.90;;;;;;;0.54;100.00;94316.13;5073966;28;20170;-56
2023/01/08 05:48:50;;;;;;;1999.90;999.90;;;;;;;0.52;100.00;94315.72;5073654;28;20197;-57
2023/01/08 05:51:15;;;;;;;1999.90;999.90;;;;;;;0.51;100.00;94311.47;5074884;28;20170;-59
2023/01/08 05:53:40;;;;;;;1999.90;999.90;;;;;;;0.53;100.00;94301.16;5078517;28;20231;-60
2023/01/08 05:56:07;;;;;;;1999.90;999.90;;;;;;;0.56;100.00;94303.13;5077646;28;20207;-66
2023/01/08 05:58:33;;;;;;;1999.90;999.90;;;;;;;0.56;100.00;94295.06;5077399;28;20182;-66
2023/01/08 06:01:08;;;;;;;1999.90;999.90;;;;;;;0.59;100.00;94304.28;5077410;28;20274;-67
2023/01/08 06:03:33;;;;;;;1999.90;999.90;;;;;;;0.62;100.00;94304.31;5078097;28;20183;-67
2023/01/08 06:06:01;;;;;;;1999.90;999.90;;;;;;;0.66;100.00;94307.84;5077317;28;20169;-67
2023/01/08 06:08:28;;;;;;;1999.90;999.90;;;;;;;0.68;100.00;94318.19;5077251;28;20206;-67
2023/01/08 06:10:57;;;;;;;1999.90;999.90;;;;;;;0.70;100.00;94316.72;5077392;28;20170;-63
2023/01/08 06:13:22;;;;;;;1999.90;999.90;;;;;;;0.71;100.00;94323.63;5077250;28;20184;-63
2023/01/08 06:15:47;;;;;;;1999.90;999.90;;;;;;;0.71;100.00;94323.63;5076711;28;20250;-64
2023/01/08 06:18:13;;;;;;;1999.90;999.90;;;;;;;0.72;100.00;94316.34;5077621;28;20233;-63
2023/01/08 06:20:38;;;;;;;1999.90;999.90;;;;;;;0.73;100.00;94310.56;5076940;28;20184;-64
2023/01/08 06:23:03;;;;;;;1999.90;999.90;;;;;;;0.76;100.00;94315.22;5076819;28;20202;-63
2023/01/08 06:25:29;;;;;;;1999.90;999.90;;;;;;;0.76;100.00;94317.91;5077193;28;20200;-63
2023/01/08 06:27:57;;;;;;;1999.90;999.90;;;;;;;0.77;100.00;94327.53;5077025;28;20183;-61
2023/01/08 06:30:22;;;;;;;1999.90;999.90;;;;;;;0.79;100.00;94319.88;5076858;28;20212;-63
2023/01/08 06:32:48;;;;;;;1999.90;999.90;;;;;;;0.82;100.00;94302.22;5076565;28;20187;-71
2023/01/08 06:35:13;;;;;;;1999.90;999.90;;;;;;;0.80;100.00;94305.28;5076444;28;20258;-69
2023/01/08 06:37:38;;;;;;;1999.90;999.90;;;;;;;0.80;100.00;94310.66;5076914;28;20187;-69
2023/01/08 06:40:04;;;;;;;1999.90;999.90;;;;;;;0.81;100.00;94300.69;5077440;28;20178;-65
2023/01/08 06:42:29;;;;;;;1999.90;999.90;;;;;;;0.80;100.00;94294.53;5076703;28;20195;-65
2023/01/08 06:44:55;;;;;;;1999.90;999.90;;;;;;;0.80;100.00;94307.97;5076377;28;20194;-64
2023/01/08 06:47:20;;;;;;;1999.90;999.90;;;;;;;0.83;100.00;94309.16;5076396;28;20254;-63
2023/01/08 06:49:45;;;;;;;1999.90;999.90;;;;;;;0.84;100.00;94306.09;5076897;28;20269;-54
2023/01/08 06:52:11;;;;;;;1999.90;999.90;;;;;;;0.83;100.00;94303.78;5076276;28;20270;-55
2023/01/08 06:54:36;;;;;;;1999.90;999.90;;;;;;;0.78;100.00;94291.47;5077009;28;20198;-55
2023/01/08 06:57:02;;;;;;;1999.90;999.90;;;;;;;0.76;100.00;94299.09;5075961;28;20206;-59
2023/01/08 06:59:27;;;;;;;1999.90;999.90;;;;;;;0.84;100.00;94306.09;5076943;28;20170;-53
2023/01/08 07:01:53;;;;;;;1999.90;999.90;;;;;;;0.93;100.00;94311.97;5076230;28;20173;-54
2023/01/08 07:04:18;;;;;;;1999.90;999.90;;;;;;;1.00;100.00;94324.69;5075516;28;20215;-60
2023/01/08 07:06:44;;;;;;;1999.90;999.90;;;;;;;1.04;100.00;94323.59;5076372;28;20207;-60
2023/01/08 07:09:13;;;;;;;1999.90;999.90;;;;;;;1.12;100.00;94324.41;5076483;28;20256;-63
2023/01/08 07:11:42;;;;;;;1999.90;999.90;;;;;;;1.17;100.00;94330.22;5075909;28;20266;-63
2023/01/08 07:14:07;;;;;;;1999.90;999.90;;;;;;;1.33;100.00;94330.78;5076070;28;20235;-63
2023/01/08 07:16:34;;;;;;;1999.90;999.90;;;;;;;1.55;100.00;94323.66;5075544;28;20213;-65
2023/01/08 07:18:59;;;;;;;1999.90;999.90;;;;;;;1.86;100.00;94334.66;5076161;28;20172;-62
2023/01/08 07:21:24;;;;;;;1999.90;999.90;;;;;;;2.40;100.00;94349.97;5076008;28;20306;-63
2023/01/08 07:23:50;;;;;;;1999.90;999.90;;;;;;;2.82;100.00;94369.84;5075968;28;20264;-67
2023/01/08 07:26:16;;;;;;;1999.90;999.90;;;;;;;3.37;100.00;94408.94;5076859;28;20165;-64
2023/01/08 07:28:41;;;;;;;1999.90;999.90;;;;;;;3.86;100.00;94458.78;5075533;28;20173;-63
2023/01/08 07:31:07;;;;;;;1999.90;999.90;;;;;;;4.44;100.00;94499.75;5076597;28;20255;-62
2023/01/08 07:33:33;;;;;;;1999.90;999.90;;;;;;;4.48;100.00;94552.63;5076050;28;20548;-64
2023/01/08 07:35:58;;;;;;;1999.90;999.90;;;;;;;4.16;100.00;94586.94;5075194;28;20233;-64
2023/01/08 07:38:23;;;;;;;1999.90;999.90;;;;;;;3.92;100.00;94601.13;5076117;28;20202;-65
2023/01/08 07:40:49;;;;;;;1999.90;999.90;;;;;;;3.74;100.00;94599.50;5075902;28;20174;-64
2023/01/08 07:43:14;;;;;;;1999.90;999.90;;;;;;;3.49;100.00;94597.47;5075316;28;20181;-59
2023/01/08 07:45:40;;;;;;;1999.90;999.90;;;;;;;3.30;100.00;94605.06;5075898;28;20178;-58
2023/01/08 07:48:06;;;;;;;1999.90;999.90;;;;;;;3.12;100.00;94610.34;5076125;28;20179;-59
2023/01/08 07:50:31;;;;;;;1999.90;999.90;;;;;;;2.89;100.00;94607.09;5075345;28;20186;-60
2023/01/08 07:53:00;;;;;;;1999.90;999.90;;;;;;;2.85;100.00;94600.13;5075292;28;20211;-60
2023/01/08 07:55:27;;;;;;;1999.90;999.90;;;;;;;2.82;100.00;94595.47;5075080;28;20247;-60
2023/01/08 07:57:53;;;;;;;1999.90;999.90;;;;;;;2.73;100.00;94593.09;5075233;28;20227;-59
2023/01/08 08:00:18;;;;;;;1999.90;999.90;;;;;;;2.67;100.00;94589.22;5075472;28;20173;-63
2023/01/08 08:02:43;;;;;;;1999.90;999.90;;;;;;;2.63;100.00;94591.06;5075201;28;20307;-72
2023/01/08 08:05:09;;;;;;;1999.90;999.90;;;;;;;2.63;100.00;94580.28;5074810;28;20230;-73
2023/01/08 08:07:35;;;;;;;1999.90;999.90;;;;;;;2.55;100.00;94565.22;5074957;28;20173;-72
2023/01/08 08:10:01;;;;;;;1999.90;999.90;;;;;;;2.63;100.00;94561.44;5074844;28;20180;-70
2023/01/08 08:12:26;;;;;;;1999.90;999.90;;;;;;;2.70;100.00;94561.50;5074628;28;20185;-73
2023/01/08 08:14:52;;;;;;;1999.90;999.90;;;;;;;2.83;100.00;94560.06;5073206;28;20173;-72
2023/01/08 08:17:17;;;;;;;1999.90;999.90;;;;;;;2.95;100.00;94562.44;5075257;28;20184;-73
2023/01/08 08:19:44;;;;;;;1999.90;999.90;;;;;;;3.08;100.00;94550.22;5074709;28;20173;-77
2023/01/08 08:22:10;;;;;;;1999.90;999.90;;;;;;;3.15;100.00;94560.28;5074614;28;20211;-60
2023/01/08 08:24:35;;;;;;;1999.90;999.90;;;;;;;3.22;100.00;94566.50;5074762;28;20174;-60
2023/01/08 08:27:00;;;;;;;1999.90;999.90;;;;;;;3.28;100.00;94570.34;5074215;28;20295;-59
2023/01/08 08:29:26;;;;;;;1999.90;999.90;;;;;;;3.30;100.00;94578.88;5074551;28;20178;-59
2023/01/08 08:31:51;;;;;;;1999.90;999.90;;;;;;;3.31;100.00;94585.00;5074467;28;20177;-59
2023/01/08 08:34:16;;;;;;;1999.90;999.90;;;;;;;3.36;100.00;94588.13;5074762;28;20255;-59
2023/01/08 08:36:42;;;;;;;1999.90;999.90;;;;;;;3.48;100.00;94582.44;5074836;28;20205;-61
2023/01/08 08:39:07;;;;;;;1999.90;999.90;;;;;;;3.58;100.00;94589.03;5074421;28;20251;-60
2023/01/08 08:41:32;;;;;;;1999.90;999.90;;;;;;;3.74;100.00;94581.38;5074306;28;20177;-61
2023/01/08 08:43:58;;;;;;;1999.90;999.90;;;;;;;3.87;100.00;94589.91;5074441;28;20207;-60
2023/01/08 08:46:24;;;;;;;1999.90;999.90;;;;;;;4.03;100.00;94596.53;5074936;28;20203;-60
2023/01/08 08:48:49;;;;;;;1999.90;999.90;;;;;;;4.09;100.00;94592.31;5074239;28;20220;-61
2023/01/08 08:51:15;;;;;;;1999.90;999.90;;;;;;;4.26;100.00;94604.34;5074105;28;20197;-60
2023/01/08 08:53:40;;;;;;;1999.90;999.90;;;;;;;4.32;100.00;94600.09;5073978;28;20185;-60
2023/01/08 08:56:06;;;;;;;1999.90;999.90;;;;;;;4.35;100.00;94618.25;5074052;28;20249;-61
2023/01/08 08:58:31;;;;;;;1999.90;999.90;;;;;;;4.35;100.00;94615.53;5074209;28;20290;-65
2023/01/08 09:01:03;;;;;;;1999.90;999.90;;;;;;;4.48;100.00;94614.03;5073859;28;20219;-63
2023/01/08 09:03:29;;;;;;;1999.90;999.90;;;;;;;4.64;100.00;94609.03;5074344;28;20207;-65
2023/01/08 09:05:55;;;;;;;1999.90;999.90;;;;;;;4.93;100.00;94610.59;5073725;28;20186;-64
2023/01/08 09:08:20;;;;;;;1999.90;999.90;;;;;;;5.33;100.00;94621.03;5073802;28;20175;-64
2023/01/08 09:10:46;;;;;;;1999.90;999.90;;;;;;;5.85;100.00;94622.88;5073613;28;20182;-66
2023/01/08 09:13:11;;;;;;;1999.90;999.90;;;;;;;6.50;100.00;94633.84;5074111;28;20275;-63
2023/01/08 09:15:37;;;;;;;1999.90;999.90;;;;;;;6.75;100.00;94650.75;5074013;28;20203;-62
2023/01/08 09:18:02;;;;;;;1999.90;999.90;;;;;;;6.68;100.00;94667.06;5073739;28;20175;-64
2023/01/08 09:20:28;;;;;;;1999.90;999.90;;;;;;;6.69;100.00;94674.03;5073716;28;20178;-64
2023/01/08 09:22:53;;;;;;;1999.90;999.90;;;;;;;6.76;100.00;94684.84;5073499;28;20181;-63
2023/01/08 09:25:19;;;;;;;1999.90;999.90;;;;;;;6.69;100.00;94688.38;5073563;28;20204;-62
2023/01/08 09:27:44;;;;;;;1999.90;999.90;;;;;;;6.57;100.00;94682.63;5073316;28;20183;-61
2023/01/08 09:30:10;;;;;;;1999.90;999.90;;;;;;;6.42;100.00;94683.88;5073399;28;20169;-61
2023/01/08 09:32:37;;;;;;;1999.90;999.90;;;;;;;6.33;100.00;94684.28;5073653;28;20176;-61
2023/01/08 09:35:02;;;;;;;1999.90;999.90;;;;;;;6.41;100.00;94685.03;5074278;28;20216;-74
2023/01/08 09:37:29;;;;;;;1999.90;999.90;;;;;;;6.45;100.00;94685.78;5057435;28;20203;-80
2023/01/08 09:39:54;;;;;;;1999.90;999.90;;;;;;;6.52;100.00;94696.63;5074005;28;20199;-83
2023/01/08 09:42:24;;;;;;;1999.90;999.90;;;;;;;6.68;100.00;94692.28;5074379;28;20181;-75
2023/01/08 09:44:53;;;;;;;1999.90;999.90;;;;;;;6.81;100.00;94687.16;5073392;28;20181;-79
2023/01/08 09:47:30;;;;;;;1999.90;999.90;;;;;;;6.99;100.00;94687.81;5073434;28;20194;-78
2023/01/08 09:50:06;;;;;;;1999.90;999.90;;;;;;;7.25;100.00;94691.94;5073199;28;20241;-76
2023/01/08 09:52:32;;;;;;;1999.90;999.90;;;;;;;7.47;100.00;94680.47;5073919;28;20207;-62
2023/01/08 09:54:59;;;;;;;1999.90;999.90;;;;;;;7.81;100.00;94678.66;5073213;28;20184;-78
2023/01/08 09:57:25;;;;;;;1999.90;999.90;;;;;;;8.09;100.00;94678.34;5073934;28;20185;-77
2023/01/08 09:59:50;;;;;;;1999.90;999.90;;;;;;;8.10;100.00;94663.59;5073629;28;20184;-77
2023/01/08 10:02:24;;;;;;;1999.90;999.90;;;;;;;8.11;100.00;94664.34;5073875;28;20173;-77
2023/01/08 10:04:56;;;;;;;1999.90;999.90;;;;;;;8.28;100.00;94647.88;5072798;28;20251;-74
2023/01/08 10:07:24;;;;;;;1999.90;999.90;;;;;;;8.20;100.00;94657.25;5073842;28;20180;-76
2023/01/08 10:09:51;;;;;;;1999.90;999.90;;;;;;;8.26;100.00;94658.38;5073112;28;20242;-62
2023/01/08 10:12:34;;;;;;;1999.90;999.90;;;;;;;8.49;100.00;94661.22;5073012;28;20260;-65
2023/01/08 10:15:07;;;;;;;1999.90;999.90;;;;;;;8.90;100.00;94661.06;5072921;28;20196;-72
2023/01/08 10:17:42;;;;;;;1999.90;999.90;;;;;;;9.53;100.00;94652.72;5073677;28;20178;-72
2023/01/08 10:20:20;;;;;;;1999.90;999.90;;;;;;;9.97;100.00;94652.34;5072666;28;20259;-71
2023/01/08 10:22:49;;;;;;;1999.90;999.90;;;;;;;10.16;100.00;94658.28;5072984;28;20270;-74
2023/01/08 10:25:16;;;;;;;1999.90;999.90;;;;;;;10.51;100.00;94663.03;5073479;28;20186;-77
2023/01/08 10:27:50;;;;;;;1999.90;999.90;;;;;;;10.58;100.00;94662.91;5072734;28;20235;-61
2023/01/08 10:30:22;;;;;;;1999.90;999.90;;;;;;;10.48;100.00;94663.91;5073751;28;20538;-62
2023/01/08 10:32:53;;;;;;;1999.90;999.90;;;;;;;10.42;100.00;94665.56;5072979;28;20236;-61
2023/01/08 10:35:23;;;;;;;1999.90;999.90;;;;;;;10.41;100.00;94653.13;5073491;28;20235;-61
2023/01/08 10:37:51;;;;;;;1999.90;999.90;;;;;;;10.14;100.00;94651.25;5073032;28;20182;-61
2023/01/08 10:40:21;;;;;;;1999.90;999.90;;;;;;;10.41;100.00;94648.41;5077546;28;20592;-65
2023/01/08 10:42:47;;;;;;;1999.90;999.90;;;;;;;10.03;100.00;94647.19;5076450;28;20176;-63
2023/01/08 10:45:20;;;;;;;1999.90;999.90;;;;;;;9.81;100.00;94648.75;5076181;28;20191;-64
2023/01/08 10:47:49;;;;;;;1999.90;999.90;;;;;;;9.72;100.00;94646.56;5076241;28;20172;-63
2023/01/08 10:50:21;;;;;;;1999.90;999.90;;;;;;;9.55;100.00;94650.34;5076787;28;20171;-63
2023/01/08 10:52:55;;;;;;;1999.90;999.90;;;;;;;9.71;100.00;94650.47;5076066;28;20174;-61
2023/01/08 10:55:24;;;;;;;1999.90;999.90;;;;;;;9.72;100.00;94643.81;5076279;28;20194;-61
2023/01/08 10:58:01;;;;;;;1999.90;999.90;;;;;;;9.74;100.00;94652.38;5076667;28;20632;-61